Airfield :
LOGIN :

Register | Disclaimer

   EN    FR    IT 

 










Legend :    VFR   Marginal VFR   IFR   Intensive IFR   Very Intensive IFR
Visi :
Ceiling :
>= 8 km
>= 3000ft
5 to 8 km
1000 to 3000 ft
1500m to 5 km
500 to 1000 ft
800 to 1500m
200 to 500 ft
< 800m
< 200 ft
Symbols :   Thunderstorms  Fog  Heavy snow  Heavy precipitations  Wind > 20 kt
SIGMETs :     Misc.  Thunderstorms  Icing  Turbulence  Mountain Waves  Volcanic Ashes






- Airport Elevation : 156 ft
- IATA code : MLN


GEML - Melilla

CURRENT METAR :
  • 271830Z AUTO 27003KT 210V340 CAVOK 16/12 Q1022

EXPIRED METARs :
  • 271800Z 30004KT 270V330 CAVOK 16/12 Q1022
  • 271730Z 32004KT 280V350 CAVOK 16/12 Q1022
  • 271700Z 33005KT CAVOK 17/12 Q1022
  • 271630Z 32006KT 290V350 CAVOK 18/12 Q1022
  • 271600Z 03006KT 330V070 CAVOK 19/11 Q1022

TAF TAF GEML
Valid from the 27 at 18:00 until the 28 at 18:00 UTC


271700Z 2718/2818 28007KT 9999 FEW015 TX21/2813Z TN13/2806Z
BECMG 2723/2801 28017KT
PROB40
TEMPO 2800/2816 28018G28KT
PROB40
TEMPO 2809/2815 28025G37KT



MET'MAP, your aeronautical weather chart ! - Copyright ORBIFLY December 2007 - Disclaimer

ORBIFLY MET'MAP TEAM :

Programming & Development : Alexandra Zaïnal
Original concept : Baudouin d'Aumeries
Technical & hardware support : Manuel Goepfert
Assistance : Marc-Olivier Méhu




SOURCES & CREDITS :

   NOAA